sensor_id;sensor_type;location;lat;lon;timestamp;P1;durP1;ratioP1;P2;durP2;ratioP2
42196;SDS011;27866;48.146;17.098;2023-01-15T00:01:56;17.63;;;12.13;;
42196;SDS011;27866;48.146;17.098;2023-01-15T00:06:07;22.17;;;12.45;;
42196;SDS011;27866;48.146;17.098;2023-01-15T00:10:19;22.13;;;11.60;;
42196;SDS011;27866;48.146;17.098;2023-01-15T00:14:30;20.05;;;11.40;;
42196;SDS011;27866;48.146;17.098;2023-01-15T00:18:41;20.02;;;11.07;;
42196;SDS011;27866;48.146;17.098;2023-01-15T00:22:53;17.98;;;10.85;;
42196;SDS011;27866;48.146;17.098;2023-01-15T00:27:04;18.60;;;10.90;;
42196;SDS011;27866;48.146;17.098;2023-01-15T00:31:34;17.30;;;10.98;;
42196;SDS011;27866;48.146;17.098;2023-01-15T00:35:46;17.73;;;10.90;;
42196;SDS011;27866;48.146;17.098;2023-01-15T00:39:57;17.20;;;10.90;;
42196;SDS011;27866;48.146;17.098;2023-01-15T00:44:08;21.48;;;11.35;;
42196;SDS011;27866;48.146;17.098;2023-01-15T00:48:20;17.70;;;10.55;;
42196;SDS011;27866;48.146;17.098;2023-01-15T00:52:31;18.52;;;9.90;;
42196;SDS011;27866;48.146;17.098;2023-01-15T00:56:42;17.42;;;10.23;;
42196;SDS011;27866;48.146;17.098;2023-01-15T01:00:57;17.02;;;10.38;;
42196;SDS011;27866;48.146;17.098;2023-01-15T01:05:10;18.90;;;10.50;;
42196;SDS011;27866;48.146;17.098;2023-01-15T01:09:21;16.67;;;10.48;;
42196;SDS011;27866;48.146;17.098;2023-01-15T01:13:33;18.85;;;10.63;;
42196;SDS011;27866;48.146;17.098;2023-01-15T01:17:45;15.95;;;10.02;;
42196;SDS011;27866;48.146;17.098;2023-01-15T01:21:57;19.60;;;10.20;;
42196;SDS011;27866;48.146;17.098;2023-01-15T01:26:08;16.10;;;10.52;;
42196;SDS011;27866;48.146;17.098;2023-01-15T01:30:20;16.35;;;10.13;;
42196;SDS011;27866;48.146;17.098;2023-01-15T01:34:31;16.13;;;10.48;;
42196;SDS011;27866;48.146;17.098;2023-01-15T01:38:43;21.10;;;11.57;;
42196;SDS011;27866;48.146;17.098;2023-01-15T01:42:59;16.85;;;10.02;;
42196;SDS011;27866;48.146;17.098;2023-01-15T01:47:11;17.45;;;10.13;;
42196;SDS011;27866;48.146;17.098;2023-01-15T01:51:33;16.80;;;9.90;;
42196;SDS011;27866;48.146;17.098;2023-01-15T01:55:53;15.13;;;9.63;;
42196;SDS011;27866;48.146;17.098;2023-01-15T02:00:07;18.45;;;9.90;;
42196;SDS011;27866;48.146;17.098;2023-01-15T02:04:26;16.10;;;9.32;;
42196;SDS011;27866;48.146;17.098;2023-01-15T02:08:40;13.32;;;9.23;;
42196;SDS011;27866;48.146;17.098;2023-01-15T02:12:54;12.77;;;8.00;;
42196;SDS011;27866;48.146;17.098;2023-01-15T02:22:14;13.82;;;8.18;;
42196;SDS011;27866;48.146;17.098;2023-01-15T02:35:37;13.35;;;7.68;;
42196;SDS011;27866;48.146;17.098;2023-01-15T02:40:04;13.30;;;8.20;;
42196;SDS011;27866;48.146;17.098;2023-01-15T02:44:18;12.38;;;7.75;;
42196;SDS011;27866;48.146;17.098;2023-01-15T02:48:36;12.55;;;7.20;;
42196;SDS011;27866;48.146;17.098;2023-01-15T02:57:07;10.63;;;6.20;;
42196;SDS011;27866;48.146;17.098;2023-01-15T03:05:42;12.30;;;7.30;;
42196;SDS011;27866;48.146;17.098;2023-01-15T03:10:03;12.27;;;7.10;;
42196;SDS011;27866;48.146;17.098;2023-01-15T03:14:20;9.97;;;6.30;;
42196;SDS011;27866;48.146;17.098;2023-01-15T03:18:47;10.15;;;5.85;;
42196;SDS011;27866;48.146;17.098;2023-01-15T03:23:09;12.90;;;7.00;;
42196;SDS011;27866;48.146;17.098;2023-01-15T03:27:23;14.73;;;8.73;;
42196;SDS011;27866;48.146;17.098;2023-01-15T03:31:38;20.45;;;9.95;;
42196;SDS011;27866;48.146;17.098;2023-01-15T03:40:14;17.50;;;10.80;;
42196;SDS011;27866;48.146;17.098;2023-01-15T03:53:56;23.23;;;11.93;;
42196;SDS011;27866;48.146;17.098;2023-01-15T03:58:19;19.17;;;11.25;;
42196;SDS011;27866;48.146;17.098;2023-01-15T04:02:41;16.08;;;10.35;;
42196;SDS011;27866;48.146;17.098;2023-01-15T04:06:55;18.52;;;10.55;;
42196;SDS011;27866;48.146;17.098;2023-01-15T04:11:07;17.85;;;11.20;;
42196;SDS011;27866;48.146;17.098;2023-01-15T04:15:29;19.88;;;11.75;;
42196;SDS011;27866;48.146;17.098;2023-01-15T04:19:41;21.13;;;9.98;;
42196;SDS011;27866;48.146;17.098;2023-01-15T04:23:54;17.95;;;10.30;;
42196;SDS011;27866;48.146;17.098;2023-01-15T04:28:05;17.73;;;9.80;;
42196;SDS011;27866;48.146;17.098;2023-01-15T04:32:17;18.15;;;10.23;;
42196;SDS011;27866;48.146;17.098;2023-01-15T04:36:28;16.40;;;9.85;;
42196;SDS011;27866;48.146;17.098;2023-01-15T04:40:40;16.35;;;9.82;;
42196;SDS011;27866;48.146;17.098;2023-01-15T04:45:10;18.35;;;9.88;;
42196;SDS011;27866;48.146;17.098;2023-01-15T04:49:21;19.00;;;9.85;;
42196;SDS011;27866;48.146;17.098;2023-01-15T04:53:32;16.13;;;9.00;;
42196;SDS011;27866;48.146;17.098;2023-01-15T04:57:44;14.15;;;8.45;;
42196;SDS011;27866;48.146;17.098;2023-01-15T05:01:55;14.18;;;8.88;;
42196;SDS011;27866;48.146;17.098;2023-01-15T05:06:06;13.13;;;7.93;;
42196;SDS011;27866;48.146;17.098;2023-01-15T05:10:19;17.30;;;8.52;;
42196;SDS011;27866;48.146;17.098;2023-01-15T05:14:30;13.85;;;8.13;;
42196;SDS011;27866;48.146;17.098;2023-01-15T05:18:41;14.60;;;8.40;;
42196;SDS011;27866;48.146;17.098;2023-01-15T05:22:54;15.90;;;8.60;;
42196;SDS011;27866;48.146;17.098;2023-01-15T05:27:05;15.13;;;7.97;;
42196;SDS011;27866;48.146;17.098;2023-01-15T05:31:17;15.90;;;8.30;;
42196;SDS011;27866;48.146;17.098;2023-01-15T05:35:29;13.68;;;6.97;;
42196;SDS011;27866;48.146;17.098;2023-01-15T05:39:40;11.25;;;6.50;;
42196;SDS011;27866;48.146;17.098;2023-01-15T05:43:51;12.30;;;6.47;;
42196;SDS011;27866;48.146;17.098;2023-01-15T05:48:06;13.15;;;6.78;;
42196;SDS011;27866;48.146;17.098;2023-01-15T05:52:17;11.93;;;6.55;;
42196;SDS011;27866;48.146;17.098;2023-01-15T05:56:29;14.95;;;7.70;;
42196;SDS011;27866;48.146;17.098;2023-01-15T06:00:40;14.10;;;6.93;;
42196;SDS011;27866;48.146;17.098;2023-01-15T06:04:51;11.18;;;6.75;;
42196;SDS011;27866;48.146;17.098;2023-01-15T06:09:03;13.43;;;7.30;;
42196;SDS011;27866;48.146;17.098;2023-01-15T06:13:14;13.60;;;7.97;;
42196;SDS011;27866;48.146;17.098;2023-01-15T06:17:27;16.02;;;7.65;;
42196;SDS011;27866;48.146;17.098;2023-01-15T06:21:38;16.13;;;7.78;;
42196;SDS011;27866;48.146;17.098;2023-01-15T06:25:50;13.52;;;7.20;;
42196;SDS011;27866;48.146;17.098;2023-01-15T06:30:01;12.55;;;7.38;;
42196;SDS011;27866;48.146;17.098;2023-01-15T06:34:13;12.80;;;7.30;;
42196;SDS011;27866;48.146;17.098;2023-01-15T06:38:24;13.82;;;7.57;;
42196;SDS011;27866;48.146;17.098;2023-01-15T06:42:35;11.10;;;6.80;;
42196;SDS011;27866;48.146;17.098;2023-01-15T06:47:12;13.50;;;7.13;;
42196;SDS011;27866;48.146;17.098;2023-01-15T06:51:32;13.38;;;7.10;;
42196;SDS011;27866;48.146;17.098;2023-01-15T06:55:43;15.60;;;7.05;;
42196;SDS011;27866;48.146;17.098;2023-01-15T06:59:54;14.10;;;7.22;;
42196;SDS011;27866;48.146;17.098;2023-01-15T07:04:05;13.05;;;7.32;;
42196;SDS011;27866;48.146;17.098;2023-01-15T07:08:16;12.73;;;6.57;;
42196;SDS011;27866;48.146;17.098;2023-01-15T07:12:27;13.55;;;6.70;;
42196;SDS011;27866;48.146;17.098;2023-01-15T07:16:39;10.23;;;6.20;;
42196;SDS011;27866;48.146;17.098;2023-01-15T07:20:53;13.80;;;6.15;;
42196;SDS011;27866;48.146;17.098;2023-01-15T07:25:08;11.93;;;6.45;;
42196;SDS011;27866;48.146;17.098;2023-01-15T07:29:19;11.68;;;6.50;;
42196;SDS011;27866;48.146;17.098;2023-01-15T07:33:31;11.98;;;6.53;;
42196;SDS011;27866;48.146;17.098;2023-01-15T07:37:42;12.90;;;7.30;;
42196;SDS011;27866;48.146;17.098;2023-01-15T07:41:53;15.05;;;6.85;;
42196;SDS011;27866;48.146;17.098;2023-01-15T07:46:23;11.60;;;6.57;;
42196;SDS011;27866;48.146;17.098;2023-01-15T07:50:52;14.25;;;7.20;;
42196;SDS011;27866;48.146;17.098;2023-01-15T07:55:04;15.10;;;7.40;;
42196;SDS011;27866;48.146;17.098;2023-01-15T07:59:17;13.37;;;7.53;;
42196;SDS011;27866;48.146;17.098;2023-01-15T08:03:29;13.93;;;7.82;;
42196;SDS011;27866;48.146;17.098;2023-01-15T08:07:41;16.60;;;8.18;;
42196;SDS011;27866;48.146;17.098;2023-01-15T08:11:53;15.43;;;8.02;;
42196;SDS011;27866;48.146;17.098;2023-01-15T08:16:22;14.48;;;8.30;;
42196;SDS011;27866;48.146;17.098;2023-01-15T08:20:34;11.40;;;7.30;;
42196;SDS011;27866;48.146;17.098;2023-01-15T08:24:46;13.27;;;7.95;;
42196;SDS011;27866;48.146;17.098;2023-01-15T08:28:58;14.63;;;8.50;;
42196;SDS011;27866;48.146;17.098;2023-01-15T08:33:09;12.88;;;8.13;;
42196;SDS011;27866;48.146;17.098;2023-01-15T08:37:20;13.77;;;7.68;;
42196;SDS011;27866;48.146;17.098;2023-01-15T08:41:31;13.45;;;7.55;;
42196;SDS011;27866;48.146;17.098;2023-01-15T08:45:42;13.75;;;7.72;;
42196;SDS011;27866;48.146;17.098;2023-01-15T08:49:54;15.00;;;8.25;;
42196;SDS011;27866;48.146;17.098;2023-01-15T08:54:05;15.82;;;8.68;;
42196;SDS011;27866;48.146;17.098;2023-01-15T08:58:16;17.13;;;8.98;;
42196;SDS011;27866;48.146;17.098;2023-01-15T09:02:28;14.35;;;9.00;;
42196;SDS011;27866;48.146;17.098;2023-01-15T09:06:39;16.20;;;8.77;;
42196;SDS011;27866;48.146;17.098;2023-01-15T09:10:55;16.15;;;9.45;;
42196;SDS011;27866;48.146;17.098;2023-01-15T09:15:10;16.70;;;9.40;;
42196;SDS011;27866;48.146;17.098;2023-01-15T09:19:22;15.32;;;9.75;;
42196;SDS011;27866;48.146;17.098;2023-01-15T09:23:33;17.55;;;10.10;;
42196;SDS011;27866;48.146;17.098;2023-01-15T09:27:45;18.30;;;9.20;;
42196;SDS011;27866;48.146;17.098;2023-01-15T09:31:56;17.13;;;10.25;;
42196;SDS011;27866;48.146;17.098;2023-01-15T09:36:13;18.02;;;9.98;;
42196;SDS011;27866;48.146;17.098;2023-01-15T09:40:42;20.27;;;10.65;;
42196;SDS011;27866;48.146;17.098;2023-01-15T09:45:44;17.08;;;10.00;;
42196;SDS011;27866;48.146;17.098;2023-01-15T09:55:12;14.90;;;9.18;;
42196;SDS011;27866;48.146;17.098;2023-01-15T09:59:34;17.50;;;10.40;;
42196;SDS011;27866;48.146;17.098;2023-01-15T10:04:52;17.17;;;10.00;;
42196;SDS011;27866;48.146;17.098;2023-01-15T10:13:52;19.65;;;10.32;;
42196;SDS011;27866;48.146;17.098;2023-01-15T10:18:21;17.88;;;9.57;;
42196;SDS011;27866;48.146;17.098;2023-01-15T10:22:40;16.75;;;10.15;;
42196;SDS011;27866;48.146;17.098;2023-01-15T10:26:58;19.65;;;10.45;;
42196;SDS011;27866;48.146;17.098;2023-01-15T10:31:16;16.95;;;9.70;;
42196;SDS011;27866;48.146;17.098;2023-01-15T10:49:21;16.95;;;9.63;;
42196;SDS011;27866;48.146;17.098;2023-01-15T10:53:40;15.57;;;10.40;;
42196;SDS011;27866;48.146;17.098;2023-01-15T10:58:29;14.85;;;9.88;;
42196;SDS011;27866;48.146;17.098;2023-01-15T11:03:02;16.17;;;9.95;;
42196;SDS011;27866;48.146;17.098;2023-01-15T11:07:27;18.52;;;9.82;;
42196;SDS011;27866;48.146;17.098;2023-01-15T11:12:00;15.07;;;9.60;;
42196;SDS011;27866;48.146;17.098;2023-01-15T11:16:28;18.40;;;9.52;;
42196;SDS011;27866;48.146;17.098;2023-01-15T11:20:59;17.48;;;10.13;;
42196;SDS011;27866;48.146;17.098;2023-01-15T11:25:11;19.40;;;10.82;;
42196;SDS011;27866;48.146;17.098;2023-01-15T11:29:34;15.27;;;9.38;;
42196;SDS011;27866;48.146;17.098;2023-01-15T11:38:12;18.95;;;10.70;;
42196;SDS011;27866;48.146;17.098;2023-01-15T11:42:24;14.70;;;9.07;;
42196;SDS011;27866;48.146;17.098;2023-01-15T11:46:54;16.58;;;9.95;;
42196;SDS011;27866;48.146;17.098;2023-01-15T11:51:23;18.67;;;10.20;;
42196;SDS011;27866;48.146;17.098;2023-01-15T11:55:38;16.85;;;10.57;;
42196;SDS011;27866;48.146;17.098;2023-01-15T11:59:49;17.65;;;10.50;;
42196;SDS011;27866;48.146;17.098;2023-01-15T12:04:06;19.40;;;10.27;;
42196;SDS011;27866;48.146;17.098;2023-01-15T12:13:55;19.40;;;10.38;;
42196;SDS011;27866;48.146;17.098;2023-01-15T12:26:30;17.35;;;11.70;;
42196;SDS011;27866;48.146;17.098;2023-01-15T12:35:27;23.55;;;12.95;;
42196;SDS011;27866;48.146;17.098;2023-01-15T12:39:48;24.02;;;12.80;;
42196;SDS011;27866;48.146;17.098;2023-01-15T12:49:33;28.93;;;13.53;;
42196;SDS011;27866;48.146;17.098;2023-01-15T12:54:02;22.58;;;13.50;;
42196;SDS011;27866;48.146;17.098;2023-01-15T12:58:33;23.77;;;13.27;;
42196;SDS011;27866;48.146;17.098;2023-01-15T13:03:09;24.27;;;14.77;;
42196;SDS011;27866;48.146;17.098;2023-01-15T13:07:46;25.25;;;13.65;;
42196;SDS011;27866;48.146;17.098;2023-01-15T13:12:14;25.05;;;15.10;;
42196;SDS011;27866;48.146;17.098;2023-01-15T13:20:51;33.95;;;15.70;;
42196;SDS011;27866;48.146;17.098;2023-01-15T13:25:17;31.02;;;16.13;;
42196;SDS011;27866;48.146;17.098;2023-01-15T13:35:00;30.25;;;16.73;;
42196;SDS011;27866;48.146;17.098;2023-01-15T13:39:24;35.42;;;17.02;;
42196;SDS011;27866;48.146;17.098;2023-01-15T13:43:59;31.40;;;18.05;;
42196;SDS011;27866;48.146;17.098;2023-01-15T13:48:14;31.83;;;17.15;;
42196;SDS011;27866;48.146;17.098;2023-01-15T13:52:35;32.17;;;18.55;;
42196;SDS011;27866;48.146;17.098;2023-01-15T13:56:47;36.30;;;18.65;;
42196;SDS011;27866;48.146;17.098;2023-01-15T14:01:03;38.20;;;19.08;;
42196;SDS011;27866;48.146;17.098;2023-01-15T14:05:35;36.00;;;18.90;;
42196;SDS011;27866;48.146;17.098;2023-01-15T14:09:46;37.40;;;20.30;;
42196;SDS011;27866;48.146;17.098;2023-01-15T14:19:02;42.60;;;20.00;;
42196;SDS011;27866;48.146;17.098;2023-01-15T14:37:44;45.50;;;21.67;;
42196;SDS011;27866;48.146;17.098;2023-01-15T14:46:45;35.63;;;19.87;;
42196;SDS011;27866;48.146;17.098;2023-01-15T14:51:06;41.33;;;20.85;;
42196;SDS011;27866;48.146;17.098;2023-01-15T15:00:47;48.63;;;22.02;;
42196;SDS011;27866;48.146;17.098;2023-01-15T15:05:03;43.20;;;20.73;;
42196;SDS011;27866;48.146;17.098;2023-01-15T15:09:44;44.47;;;23.23;;
42196;SDS011;27866;48.146;17.098;2023-01-15T15:14:02;42.03;;;21.80;;
42196;SDS011;27866;48.146;17.098;2023-01-15T15:18:25;43.97;;;22.75;;
42196;SDS011;27866;48.146;17.098;2023-01-15T15:23:10;39.60;;;21.35;;
42196;SDS011;27866;48.146;17.098;2023-01-15T15:27:37;44.00;;;23.15;;
42196;SDS011;27866;48.146;17.098;2023-01-15T15:31:49;44.13;;;24.90;;
42196;SDS011;27866;48.146;17.098;2023-01-15T15:36:06;54.28;;;26.67;;
42196;SDS011;27866;48.146;17.098;2023-01-15T15:40:19;53.42;;;27.48;;
42196;SDS011;27866;48.146;17.098;2023-01-15T15:44:49;50.58;;;25.63;;
42196;SDS011;27866;48.146;17.098;2023-01-15T15:49:24;58.05;;;26.48;;
42196;SDS011;27866;48.146;17.098;2023-01-15T15:53:35;52.63;;;26.27;;
42196;SDS011;27866;48.146;17.098;2023-01-15T15:57:48;54.22;;;25.98;;
42196;SDS011;27866;48.146;17.098;2023-01-15T16:06:47;49.20;;;24.98;;
42196;SDS011;27866;48.146;17.098;2023-01-15T16:10:59;48.80;;;26.88;;
42196;SDS011;27866;48.146;17.098;2023-01-15T16:15:21;47.47;;;25.48;;
42196;SDS011;27866;48.146;17.098;2023-01-15T16:19:41;47.78;;;24.58;;
42196;SDS011;27866;48.146;17.098;2023-01-15T16:24:03;58.17;;;26.55;;
42196;SDS011;27866;48.146;17.098;2023-01-15T16:28:24;53.05;;;25.75;;
42196;SDS011;27866;48.146;17.098;2023-01-15T16:32:45;53.67;;;27.15;;
42196;SDS011;27866;48.146;17.098;2023-01-15T16:36:58;44.45;;;23.42;;
42196;SDS011;27866;48.146;17.098;2023-01-15T16:41:25;47.07;;;25.47;;
42196;SDS011;27866;48.146;17.098;2023-01-15T16:46:04;46.55;;;24.65;;
42196;SDS011;27866;48.146;17.098;2023-01-15T16:54:51;67.63;;;28.17;;
42196;SDS011;27866;48.146;17.098;2023-01-15T16:59:52;59.72;;;28.38;;
42196;SDS011;27866;48.146;17.098;2023-01-15T17:03:39;52.45;;;26.25;;
42196;SDS011;27866;48.146;17.098;2023-01-15T17:07:52;63.95;;;28.75;;
42196;SDS011;27866;48.146;17.098;2023-01-15T17:12:46;60.25;;;28.98;;
42196;SDS011;27866;48.146;17.098;2023-01-15T17:16:43;38.20;;;20.38;;
42196;SDS011;27866;48.146;17.098;2023-01-15T17:20:55;52.88;;;24.55;;
42196;SDS011;27866;48.146;17.098;2023-01-15T17:29:44;43.45;;;21.48;;
42196;SDS011;27866;48.146;17.098;2023-01-15T17:33:55;39.92;;;19.00;;
42196;SDS011;27866;48.146;17.098;2023-01-15T17:38:09;37.43;;;19.83;;
42196;SDS011;27866;48.146;17.098;2023-01-15T17:42:23;43.35;;;19.33;;
42196;SDS011;27866;48.146;17.098;2023-01-15T17:46:34;41.58;;;20.73;;
42196;SDS011;27866;48.146;17.098;2023-01-15T17:50:45;46.85;;;21.42;;
42196;SDS011;27866;48.146;17.098;2023-01-15T17:54:56;37.80;;;20.23;;
42196;SDS011;27866;48.146;17.098;2023-01-15T18:04:00;35.45;;;19.50;;
42196;SDS011;27866;48.146;17.098;2023-01-15T18:08:31;38.20;;;21.42;;
42196;SDS011;27866;48.146;17.098;2023-01-15T18:12:43;27.02;;;14.45;;
42196;SDS011;27866;48.146;17.098;2023-01-15T18:16:54;17.95;;;10.88;;
42196;SDS011;27866;48.146;17.098;2023-01-15T18:21:05;12.43;;;8.93;;
42196;SDS011;27866;48.146;17.098;2023-01-15T18:25:17;13.30;;;8.30;;
42196;SDS011;27866;48.146;17.098;2023-01-15T18:29:28;15.95;;;9.00;;
42196;SDS011;27866;48.146;17.098;2023-01-15T18:33:39;16.13;;;10.40;;
42196;SDS011;27866;48.146;17.098;2023-01-15T18:37:51;11.85;;;8.10;;
42196;SDS011;27866;48.146;17.098;2023-01-15T18:42:02;11.20;;;8.63;;
42196;SDS011;27866;48.146;17.098;2023-01-15T18:46:14;10.93;;;7.32;;
42196;SDS011;27866;48.146;17.098;2023-01-15T18:50:43;15.88;;;9.90;;
42196;SDS011;27866;48.146;17.098;2023-01-15T18:54:56;9.98;;;7.55;;
42196;SDS011;27866;48.146;17.098;2023-01-15T19:03:20;23.08;;;11.63;;
42196;SDS011;27866;48.146;17.098;2023-01-15T19:07:31;23.23;;;12.40;;
42196;SDS011;27866;48.146;17.098;2023-01-15T19:11:43;17.63;;;10.75;;
42196;SDS011;27866;48.146;17.098;2023-01-15T19:15:54;15.70;;;8.85;;
42196;SDS011;27866;48.146;17.098;2023-01-15T19:20:24;8.38;;;6.20;;
42196;SDS011;27866;48.146;17.098;2023-01-15T19:24:35;11.80;;;6.03;;
42196;SDS011;27866;48.146;17.098;2023-01-15T19:28:46;11.90;;;8.50;;
42196;SDS011;27866;48.146;17.098;2023-01-15T19:32:58;10.65;;;6.57;;
42196;SDS011;27866;48.146;17.098;2023-01-15T19:37:09;8.05;;;5.88;;
42196;SDS011;27866;48.146;17.098;2023-01-15T19:41:20;8.23;;;5.28;;
42196;SDS011;27866;48.146;17.098;2023-01-15T19:45:50;6.10;;;4.10;;
42196;SDS011;27866;48.146;17.098;2023-01-15T19:50:22;7.57;;;4.60;;
42196;SDS011;27866;48.146;17.098;2023-01-15T19:54:41;8.48;;;4.80;;
42196;SDS011;27866;48.146;17.098;2023-01-15T19:59:07;7.88;;;5.50;;
42196;SDS011;27866;48.146;17.098;2023-01-15T20:03:19;7.78;;;5.30;;
42196;SDS011;27866;48.146;17.098;2023-01-15T20:07:30;8.68;;;6.85;;
42196;SDS011;27866;48.146;17.098;2023-01-15T20:11:41;11.32;;;7.32;;
42196;SDS011;27866;48.146;17.098;2023-01-15T20:16:12;14.23;;;8.55;;
42196;SDS011;27866;48.146;17.098;2023-01-15T20:20:31;12.88;;;8.98;;
42196;SDS011;27866;48.146;17.098;2023-01-15T20:24:43;13.57;;;9.52;;
42196;SDS011;27866;48.146;17.098;2023-01-15T20:28:55;14.93;;;9.82;;
42196;SDS011;27866;48.146;17.098;2023-01-15T20:33:06;15.18;;;10.23;;
42196;SDS011;27866;48.146;17.098;2023-01-15T20:37:18;14.15;;;9.25;;
42196;SDS011;27866;48.146;17.098;2023-01-15T20:41:29;8.32;;;5.63;;
42196;SDS011;27866;48.146;17.098;2023-01-15T20:46:09;14.70;;;7.47;;
42196;SDS011;27866;48.146;17.098;2023-01-15T20:50:25;5.88;;;3.90;;
42196;SDS011;27866;48.146;17.098;2023-01-15T20:54:39;5.85;;;3.28;;
42196;SDS011;27866;48.146;17.098;2023-01-15T20:58:50;4.13;;;3.10;;
42196;SDS011;27866;48.146;17.098;2023-01-15T21:03:02;3.67;;;2.80;;
42196;SDS011;27866;48.146;17.098;2023-01-15T21:07:15;3.75;;;2.75;;
42196;SDS011;27866;48.146;17.098;2023-01-15T21:11:26;3.25;;;2.50;;
42196;SDS011;27866;48.146;17.098;2023-01-15T21:15:37;3.65;;;2.10;;
42196;SDS011;27866;48.146;17.098;2023-01-15T21:19:49;1.95;;;1.75;;
42196;SDS011;27866;48.146;17.098;2023-01-15T21:24:00;3.65;;;1.95;;
42196;SDS011;27866;48.146;17.098;2023-01-15T21:28:11;3.90;;;1.80;;
42196;SDS011;27866;48.146;17.098;2023-01-15T21:32:23;1.95;;;1.60;;
42196;SDS011;27866;48.146;17.098;2023-01-15T21:36:34;2.05;;;1.60;;
42196;SDS011;27866;48.146;17.098;2023-01-15T21:40:46;1.98;;;1.40;;
42196;SDS011;27866;48.146;17.098;2023-01-15T21:44:57;1.92;;;1.58;;
42196;SDS011;27866;48.146;17.098;2023-01-15T21:49:09;3.58;;;1.55;;
42196;SDS011;27866;48.146;17.098;2023-01-15T21:53:20;2.80;;;1.70;;
42196;SDS011;27866;48.146;17.098;2023-01-15T21:57:32;2.00;;;1.60;;
42196;SDS011;27866;48.146;17.098;2023-01-15T22:01:43;2.08;;;1.50;;
42196;SDS011;27866;48.146;17.098;2023-01-15T22:05:54;4.22;;;1.80;;
42196;SDS011;27866;48.146;17.098;2023-01-15T22:10:06;2.47;;;1.60;;
42196;SDS011;27866;48.146;17.098;2023-01-15T22:14:19;2.28;;;1.60;;
42196;SDS011;27866;48.146;17.098;2023-01-15T22:18:38;2.13;;;1.90;;
42196;SDS011;27866;48.146;17.098;2023-01-15T22:22:50;2.50;;;1.80;;
42196;SDS011;27866;48.146;17.098;2023-01-15T22:27:01;2.72;;;1.70;;
42196;SDS011;27866;48.146;17.098;2023-01-15T22:31:15;2.63;;;1.98;;
42196;SDS011;27866;48.146;17.098;2023-01-15T22:35:27;5.82;;;2.00;;
42196;SDS011;27866;48.146;17.098;2023-01-15T22:39:38;2.50;;;2.00;;
42196;SDS011;27866;48.146;17.098;2023-01-15T22:43:49;2.97;;;2.05;;
42196;SDS011;27866;48.146;17.098;2023-01-15T22:48:01;3.05;;;2.33;;
42196;SDS011;27866;48.146;17.098;2023-01-15T22:52:12;3.17;;;2.15;;
42196;SDS011;27866;48.146;17.098;2023-01-15T22:56:23;3.33;;;2.30;;
42196;SDS011;27866;48.146;17.098;2023-01-15T23:00:35;3.22;;;2.20;;
42196;SDS011;27866;48.146;17.098;2023-01-15T23:04:46;3.42;;;2.40;;
42196;SDS011;27866;48.146;17.098;2023-01-15T23:08:58;4.18;;;2.47;;
42196;SDS011;27866;48.146;17.098;2023-01-15T23:13:12;4.05;;;2.63;;
42196;SDS011;27866;48.146;17.098;2023-01-15T23:17:23;3.42;;;2.60;;
42196;SDS011;27866;48.146;17.098;2023-01-15T23:21:36;4.80;;;2.75;;
42196;SDS011;27866;48.146;17.098;2023-01-15T23:25:48;5.43;;;3.17;;
42196;SDS011;27866;48.146;17.098;2023-01-15T23:30:00;4.28;;;2.47;;
42196;SDS011;27866;48.146;17.098;2023-01-15T23:34:12;7.22;;;3.05;;
42196;SDS011;27866;48.146;17.098;2023-01-15T23:38:23;7.80;;;3.15;;
42196;SDS011;27866;48.146;17.098;2023-01-15T23:42:35;6.65;;;3.30;;
42196;SDS011;27866;48.146;17.098;2023-01-15T23:47:06;2.92;;;2.40;;
42196;SDS011;27866;48.146;17.098;2023-01-15T23:51:18;4.03;;;2.83;;
42196;SDS011;27866;48.146;17.098;2023-01-15T23:55:29;3.83;;;2.88;;
42196;SDS011;27866;48.146;17.098;2023-01-15T23:59:40;4.55;;;3.17;;
